Terminal Aerodrome Forecast
Issued by NWS

Home | Current Version | Previous Version | Text Only | Print | Product List | Glossary On
Versions: 1 2 3 4 5 6 7 8 9 10 11 12 13 14 15 16 17 18 19 20 21 22
000
FTUS43 KDLH 240600 AAA
TAFHYR
TAF AMD
KHYR 240618Z 2406/2506 11008KT 6SM -RA BR BKN009 OVC020
      TEMPO 2406/2408 5SM -RA OVC007
     FM240800 14007KT 6SM -DZ BR OVC007
      TEMPO 2408/2412 3SM -RA BR OVC010
     FM241500 12010KT 3SM -RA BR OVC009
     FM242300 VRB03KT 2SM -DZ BR OVC006=

USA.gov is the U.S. government's official web portal to all federal, state and local government web resources and services.